createdAt,value
2023-02-27T00:02:54.567Z,13.50
2023-02-27T00:06:30.563Z,10.30
2023-02-27T00:10:18.855Z,10.70
2023-02-27T00:14:05.232Z,13.10
2023-02-27T00:17:53.061Z,9.70
2023-02-27T00:21:40.748Z,6.70
2023-02-27T00:25:28.360Z,12.90
2023-02-27T00:29:17.075Z,15.80
2023-02-27T00:33:05.109Z,11.20
2023-02-27T00:36:52.744Z,11.50
2023-02-27T00:40:40.360Z,18.40
2023-02-27T00:44:16.713Z,18.00
2023-02-27T00:48:04.264Z,21.20
2023-02-27T00:51:51.795Z,17.10
2023-02-27T00:55:39.336Z,17.20
2023-02-27T00:59:27.030Z,18.70
2023-02-27T01:03:14.575Z,13.90
2023-02-27T01:07:01.664Z,15.20
2023-02-27T01:10:49.426Z,17.40
2023-02-27T01:14:37.348Z,19.80
2023-02-27T01:18:27.016Z,15.40
2023-02-27T01:22:08.332Z,22.30
2023-02-27T01:25:57.275Z,14.50
2023-02-27T01:29:45.766Z,28.50
2023-02-27T01:33:33.429Z,68.70
2023-02-27T01:37:21.286Z,24.00
2023-02-27T01:41:08.937Z,90.60
2023-02-27T01:45:23.640Z,56.50
2023-02-27T01:49:36.396Z,18.10
2023-02-27T01:53:16.963Z,14.70
2023-02-27T01:57:07.216Z,15.00
2023-02-27T02:00:54.811Z,10.20
2023-02-27T02:04:42.889Z,13.90
2023-02-27T02:08:34.208Z,10.60
2023-02-27T02:12:25.710Z,15.50
2023-02-27T02:16:25.153Z,25.10
2023-02-27T02:20:28.250Z,11.60
2023-02-27T02:26:03.524Z,32.30
2023-02-27T02:30:21.014Z,25.80
2023-02-27T02:34:40.034Z,14.70
2023-02-27T02:38:41.026Z,61.00
2023-02-27T02:42:34.705Z,26.40
2023-02-27T02:46:17.797Z,27.10
2023-02-27T02:50:12.533Z,35.80
2023-02-27T02:54:47.611Z,16.40
2023-02-27T02:58:47.488Z,25.30
2023-02-27T03:02:38.835Z,22.80
2023-02-27T03:06:32.273Z,16.20
2023-02-27T03:10:27.815Z,20.00
2023-02-27T03:14:12.405Z,30.60
2023-02-27T03:18:06.626Z,33.50
2023-02-27T03:21:59.266Z,31.00
2023-02-27T03:25:47.853Z,12.50
2023-02-27T03:29:42.306Z,8.60
2023-02-27T03:33:33.367Z,13.20
2023-02-27T03:37:28.512Z,14.00
2023-02-27T03:41:25.490Z,17.50
2023-02-27T03:45:22.609Z,11.50
2023-02-27T03:49:10.577Z,15.00
2023-02-27T03:52:58.595Z,25.20
2023-02-27T03:56:51.865Z,18.40
2023-02-27T04:00:39.523Z,18.80
2023-02-27T04:04:28.568Z,16.90
2023-02-27T04:08:42.091Z,13.90
2023-02-27T04:12:54.292Z,12.50
2023-02-27T04:17:01.110Z,13.20
2023-02-27T04:20:55.547Z,17.10
2023-02-27T04:24:53.592Z,8.80
2023-02-27T04:28:46.103Z,12.10
2023-02-27T04:32:32.175Z,15.70
2023-02-27T04:36:20.274Z,9.70
2023-02-27T04:40:12.273Z,12.40
2023-02-27T04:44:01.758Z,13.40
2023-02-27T04:47:53.466Z,10.40
2023-02-27T04:51:37.866Z,9.90
2023-02-27T04:55:30.542Z,17.60
2023-02-27T04:59:11.258Z,14.50
2023-02-27T05:02:44.738Z,15.90
2023-02-27T05:06:36.878Z,11.10
2023-02-27T05:10:31.517Z,10.70
2023-02-27T05:14:17.642Z,17.70
2023-02-27T05:18:01.135Z,15.90
2023-02-27T05:21:56.220Z,18.10
2023-02-27T05:25:51.826Z,20.10
2023-02-27T05:29:48.204Z,17.80
2023-02-27T05:33:33.885Z,33.40
2023-02-27T05:37:26.858Z,22.80
2023-02-27T05:41:19.098Z,30.40
2023-02-27T05:45:12.324Z,24.20
2023-02-27T05:48:59.233Z,22.60
2023-02-27T05:52:31.801Z,22.00
2023-02-27T05:56:20.147Z,16.70
2023-02-27T06:00:03.200Z,20.50
2023-02-27T06:03:44.636Z,28.50
2023-02-27T06:07:17.425Z,43.10
2023-02-27T06:10:50.152Z,36.60
2023-02-27T06:14:25.547Z,27.10
2023-02-27T06:18:15.244Z,17.20
2023-02-27T06:21:46.831Z,17.60
2023-02-27T06:25:19.665Z,20.70
2023-02-27T06:28:57.407Z,14.60
2023-02-27T06:32:45.628Z,18.10
2023-02-27T06:36:30.559Z,24.30
2023-02-27T06:40:23.896Z,25.40
2023-02-27T06:44:14.628Z,20.50
2023-02-27T06:47:45.695Z,30.30
2023-02-27T06:51:24.494Z,18.70
2023-02-27T06:55:13.858Z,21.40
2023-02-27T06:58:51.159Z,22.40
2023-02-27T07:02:35.113Z,22.80
2023-02-27T07:06:19.567Z,14.00
2023-02-27T07:09:50.232Z,38.20
2023-02-27T07:13:21.350Z,26.20
2023-02-27T07:17:18.138Z,22.60
2023-02-27T07:20:56.376Z,32.70
2023-02-27T07:24:38.715Z,22.70
2023-02-27T07:28:26.433Z,28.10
2023-02-27T07:32:08.478Z,38.70
2023-02-27T07:35:46.582Z,29.90
2023-02-27T07:39:26.798Z,20.10
2023-02-27T07:43:05.233Z,22.30
2023-02-27T07:46:35.881Z,28.90
2023-02-27T07:50:23.646Z,25.70
2023-02-27T07:54:02.728Z,22.40
2023-02-27T07:57:40.649Z,25.80
2023-02-27T08:01:16.779Z,21.50
2023-02-27T08:04:48.101Z,15.40
2023-02-27T08:08:25.926Z,16.80
2023-02-27T08:12:04.747Z,17.30
2023-02-27T08:15:37.526Z,20.80
2023-02-27T08:19:08.683Z,15.60
2023-02-27T08:22:38.736Z,17.40
2023-02-27T08:26:16.839Z,19.40
2023-02-27T08:30:06.270Z,19.50
2023-02-27T08:33:36.644Z,17.30
2023-02-27T08:37:21.452Z,19.10
2023-02-27T08:40:53.691Z,21.70
2023-02-27T08:44:36.122Z,16.30
2023-02-27T08:48:24.956Z,26.20
2023-02-27T08:51:53.397Z,26.20
2023-02-27T08:55:34.800Z,20.70
2023-02-27T08:59:11.815Z,15.80
2023-02-27T09:02:52.286Z,18.90
2023-02-27T09:06:38.419Z,23.40
2023-02-27T09:10:17.951Z,25.40
2023-02-27T09:13:45.781Z,20.60
2023-02-27T09:17:22.262Z,17.80
2023-02-27T09:21:10.142Z,19.70
2023-02-27T09:24:52.756Z,19.80
2023-02-27T09:28:31.333Z,19.30
2023-02-27T09:32:10.721Z,19.40
2023-02-27T09:35:43.536Z,15.40
2023-02-27T09:39:26.372Z,16.70
2023-02-27T09:43:35.278Z,18.50
2023-02-27T09:47:14.789Z,33.70
2023-02-27T09:50:50.378Z,13.10
2023-02-27T09:54:26.507Z,39.20
2023-02-27T09:58:09.400Z,19.20
2023-02-27T10:02:06.886Z,9.60
2023-02-27T10:05:55.172Z,8.50
2023-02-27T10:09:44.399Z,12.60
2023-02-27T10:13:31.873Z,10.30
2023-02-27T10:17:12.177Z,21.40
2023-02-27T10:20:56.920Z,22.50
2023-02-27T10:24:48.783Z,11.00
2023-02-27T10:28:24.953Z,35.70
2023-02-27T10:32:12.011Z,46.40
2023-02-27T10:35:52.148Z,26.70
2023-02-27T10:39:51.521Z,13.90
2023-02-27T10:43:23.066Z,10.90
2023-02-27T10:47:16.559Z,6.80
2023-02-27T10:50:53.777Z,70.40
2023-02-27T10:54:31.906Z,18.50
2023-02-27T10:58:19.923Z,11.90
2023-02-27T11:01:53.796Z,17.90
2023-02-27T11:05:40.928Z,6.20
2023-02-27T11:09:23.940Z,13.40
2023-02-27T11:13:10.894Z,9.60
2023-02-27T11:16:55.113Z,11.70
2023-02-27T11:20:43.621Z,63.70
2023-02-27T11:24:23.120Z,12.00
2023-02-27T11:28:25.570Z,14.50
2023-02-27T11:31:59.374Z,27.00
2023-02-27T11:35:35.635Z,8.50
2023-02-27T11:39:06.068Z,2.80
2023-02-27T11:42:38.276Z,5.30
2023-02-27T11:46:46.627Z,6.80
2023-02-27T11:50:29.860Z,8.30
2023-02-27T11:54:22.016Z,6.40
2023-02-27T11:58:16.302Z,11.90
2023-02-27T12:02:12.549Z,10.30
2023-02-27T12:05:54.429Z,9.80
2023-02-27T12:09:45.636Z,7.50
2023-02-27T12:13:37.065Z,6.40
2023-02-27T12:17:30.246Z,5.40
2023-02-27T12:21:17.543Z,27.30
2023-02-27T12:24:56.723Z,29.20
2023-02-27T12:28:53.007Z,21.30
2023-02-27T12:32:45.757Z,32.50
2023-02-27T12:36:28.224Z,21.40
2023-02-27T12:40:20.678Z,18.40
2023-02-27T12:44:04.288Z,20.50
2023-02-27T12:47:52.618Z,18.80
2023-02-27T12:51:51.690Z,69.80
2023-02-27T12:55:32.803Z,20.80
2023-02-27T12:59:09.427Z,19.20
2023-02-27T13:03:00.457Z,14.50
2023-02-27T13:06:51.453Z,18.90
2023-02-27T13:10:33.451Z,43.30
2023-02-27T13:14:24.660Z,21.40
2023-02-27T13:18:03.372Z,10.20
2023-02-27T13:21:56.596Z,19.40
2023-02-27T13:25:39.831Z,14.10
2023-02-27T13:29:39.555Z,11.30
2023-02-27T13:33:23.820Z,7.10
2023-02-27T13:37:05.625Z,4.90
2023-02-27T13:40:53.431Z,8.10
2023-02-27T13:44:50.982Z,6.20
2023-02-27T13:48:42.529Z,36.60
2023-02-27T13:52:32.520Z,16.00
2023-02-27T13:56:23.207Z,13.20
2023-02-27T14:00:05.291Z,22.00
2023-02-27T14:03:43.665Z,12.10
2023-02-27T14:07:27.169Z,7.00
2023-02-27T14:11:02.845Z,10.30
2023-02-27T14:14:53.377Z,8.60
2023-02-27T14:18:58.214Z,20.20
2023-02-27T14:23:20.703Z,18.30
2023-02-27T14:26:55.565Z,17.50
2023-02-27T14:30:42.073Z,26.10
2023-02-27T14:34:21.536Z,18.10
2023-02-27T14:37:49.256Z,11.30
2023-02-27T14:41:38.172Z,18.10
2023-02-27T14:45:20.401Z,10.10
2023-02-27T14:49:19.399Z,10.50
2023-02-27T14:52:52.764Z,25.00
2023-02-27T14:56:29.281Z,8.10
2023-02-27T15:00:22.828Z,7.50
2023-02-27T15:04:02.476Z,5.90
2023-02-27T15:07:35.270Z,8.80
2023-02-27T15:11:20.576Z,13.70
2023-02-27T15:14:58.130Z,9.20
2023-02-27T15:18:28.934Z,11.70
2023-02-27T15:22:05.682Z,6.30
2023-02-27T15:25:36.771Z,10.20
2023-02-27T15:29:10.087Z,9.70
2023-02-27T15:32:44.544Z,9.70
2023-02-27T15:36:26.929Z,8.10
2023-02-27T15:40:09.196Z,13.50
2023-02-27T15:43:39.896Z,15.40
2023-02-27T15:47:15.040Z,16.90
2023-02-27T15:50:48.807Z,10.60
2023-02-27T15:54:22.323Z,26.80
2023-02-27T15:58:03.784Z,11.80
2023-02-27T16:01:53.219Z,8.40
2023-02-27T16:05:36.233Z,17.50
2023-02-27T16:09:26.083Z,21.70
2023-02-27T16:12:57.697Z,21.70
2023-02-27T16:16:56.816Z,19.50
2023-02-27T16:20:47.806Z,24.90
2023-02-27T16:24:34.557Z,27.80
2023-02-27T16:28:05.675Z,31.10
2023-02-27T16:31:57.049Z,21.10
2023-02-27T16:35:36.143Z,24.30
2023-02-27T16:39:15.487Z,39.40
2023-02-27T16:42:48.908Z,38.60
2023-02-27T16:46:36.628Z,38.40
2023-02-27T16:50:21.646Z,43.10
2023-02-27T16:53:58.543Z,41.30
2023-02-27T16:57:35.123Z,43.60
2023-02-27T17:01:25.509Z,63.60
2023-02-27T17:05:10.330Z,59.40
2023-02-27T17:08:52.904Z,57.50
2023-02-27T17:12:29.168Z,50.10
2023-02-27T17:16:18.676Z,37.40
2023-02-27T17:19:49.422Z,47.50
2023-02-27T17:23:21.569Z,50.00
2023-02-27T17:26:52.601Z,196.90
2023-02-27T17:30:21.207Z,495.30
2023-02-27T17:33:48.723Z,153.20
2023-02-27T17:37:22.265Z,78.60
2023-02-27T17:44:40.343Z,91.80
2023-02-27T17:48:10.962Z,99.00
2023-02-27T17:51:43.626Z,122.40
2023-02-27T17:55:32.084Z,163.50
2023-02-27T18:02:31.240Z,128.20
2023-02-27T18:05:59.031Z,126.90
2023-02-27T18:09:33.813Z,110.10
2023-02-27T18:13:12.709Z,96.60
2023-02-27T18:16:51.761Z,96.60
2023-02-27T18:20:40.492Z,90.30
2023-02-27T18:24:18.363Z,134.80
2023-02-27T18:27:48.645Z,98.80
2023-02-27T18:31:27.720Z,106.60
2023-02-27T18:35:03.740Z,125.40
2023-02-27T18:38:42.309Z,179.80
2023-02-27T18:42:20.422Z,137.90
2023-02-27T18:45:55.800Z,125.80
2023-02-27T18:49:36.250Z,123.60
2023-02-27T18:53:13.863Z,165.20
2023-02-27T18:56:53.214Z,160.80
2023-02-27T19:00:37.724Z,112.60
2023-02-27T19:04:10.918Z,201.90
2023-02-27T19:07:46.228Z,205.50
2023-02-27T19:11:28.656Z,125.80
2023-02-27T19:15:01.177Z,121.60
2023-02-27T19:18:37.738Z,204.60
2023-02-27T19:22:14.377Z,121.30
2023-02-27T19:25:47.756Z,101.00
2023-02-27T19:29:35.447Z,93.00
2023-02-27T19:33:02.705Z,172.40
2023-02-27T19:36:34.680Z,210.90
2023-02-27T19:40:22.939Z,153.40
2023-02-27T19:43:56.264Z,97.90
2023-02-27T19:47:26.695Z,92.10
2023-02-27T19:50:56.907Z,100.60
2023-02-27T19:54:30.757Z,106.30
2023-02-27T19:58:21.449Z,97.30
2023-02-27T20:01:54.962Z,101.30
2023-02-27T20:05:37.966Z,114.10
2023-02-27T20:09:18.649Z,112.80
2023-02-27T20:12:49.455Z,114.00
2023-02-27T20:16:37.598Z,108.10
2023-02-27T20:20:14.404Z,86.00
2023-02-27T20:24:02.565Z,101.20
2023-02-27T20:27:36.233Z,87.90
2023-02-27T20:31:27.635Z,118.80
2023-02-27T20:35:21.094Z,116.80
2023-02-27T20:39:03.831Z,59.70
2023-02-27T20:42:41.261Z,80.70
2023-02-27T20:46:31.575Z,90.00
2023-02-27T20:49:59.039Z,91.40
2023-02-27T20:53:26.975Z,91.30
2023-02-27T20:56:54.674Z,85.90
2023-02-27T21:00:31.478Z,68.60
2023-02-27T21:04:02.711Z,68.30
2023-02-27T21:07:39.217Z,92.40
2023-02-27T21:11:18.804Z,80.60
2023-02-27T21:14:56.666Z,76.40
2023-02-27T21:18:45.174Z,60.40
2023-02-27T21:22:17.301Z,75.60
2023-02-27T21:25:58.713Z,76.40
2023-02-27T21:29:31.043Z,85.60
2023-02-27T21:33:07.398Z,181.50
2023-02-27T21:36:55.480Z,125.50
2023-02-27T21:40:27.159Z,120.50
2023-02-27T21:44:17.202Z,92.70
2023-02-27T21:47:54.844Z,72.10
2023-02-27T21:51:38.345Z,60.70
2023-02-27T21:55:18.143Z,63.50
2023-02-27T21:58:56.173Z,76.00
2023-02-27T22:02:23.859Z,84.80
2023-02-27T22:06:00.588Z,70.50
2023-02-27T22:09:53.145Z,65.60
2023-02-27T22:13:32.306Z,67.90
2023-02-27T22:17:34.508Z,69.40
2023-02-27T22:21:25.428Z,70.40
2023-02-27T22:25:15.080Z,74.40
2023-02-27T22:28:56.419Z,74.00
2023-02-27T22:32:33.759Z,65.50
2023-02-27T22:36:11.228Z,64.70
2023-02-27T22:39:41.594Z,67.80
2023-02-27T22:43:14.041Z,54.90
2023-02-27T22:46:47.157Z,49.20
2023-02-27T22:50:27.725Z,57.50
2023-02-27T22:54:01.558Z,58.40
2023-02-27T22:57:34.443Z,55.10
2023-02-27T23:01:18.499Z,61.20
2023-02-27T23:04:49.361Z,63.60
2023-02-27T23:08:47.019Z,67.60
2023-02-27T23:12:45.249Z,79.30
2023-02-27T23:16:22.075Z,76.70
2023-02-27T23:20:00.552Z,69.30
2023-02-27T23:23:41.918Z,63.60
2023-02-27T23:27:29.280Z,65.50
2023-02-27T23:31:10.494Z,60.90
2023-02-27T23:34:49.601Z,61.70
2023-02-27T23:38:37.704Z,62.60
2023-02-27T23:42:25.102Z,72.40
2023-02-27T23:46:15.522Z,70.60
2023-02-27T23:49:52.287Z,81.40
2023-02-27T23:53:25.142Z,87.20
2023-02-27T23:57:12.641Z,72.10
